createdAt,value
2022-08-27T00:02:22.947Z,99952.00
2022-08-27T00:04:51.606Z,99950.47
2022-08-27T00:07:20.418Z,99945.13
2022-08-27T00:09:49.187Z,99950.16
2022-08-27T00:12:17.992Z,99934.47
2022-08-27T00:14:46.757Z,99940.28
2022-08-27T00:17:17.207Z,99928.94
2022-08-27T00:19:45.678Z,99928.94
2022-08-27T00:22:14.740Z,99919.66
2022-08-27T00:24:49.157Z,99922.19
2022-08-27T00:27:18.447Z,99913.56
2022-08-27T00:29:47.666Z,99926.19
2022-08-27T00:32:18.252Z,99917.28
2022-08-27T00:34:46.364Z,99924.53
2022-08-27T00:37:15.048Z,99919.38
2022-08-27T00:39:43.766Z,99930.59
2022-08-27T00:42:13.611Z,99931.84
2022-08-27T00:44:42.359Z,99933.75
2022-08-27T00:47:15.144Z,99934.56
2022-08-27T00:49:48.778Z,99931.06
2022-08-27T00:52:22.665Z,99934.19
2022-08-27T00:54:53.545Z,99928.66
2022-08-27T00:57:22.379Z,99929.34
2022-08-27T00:59:51.226Z,99936.22
2022-08-27T01:02:20.091Z,99925.06
2022-08-27T01:04:52.977Z,99923.03
2022-08-27T01:07:22.812Z,99933.22
2022-08-27T01:09:51.654Z,99925.34
2022-08-27T01:12:21.469Z,99916.09
2022-08-27T01:14:50.439Z,99920.03
2022-08-27T01:17:19.317Z,99914.91
2022-08-27T01:19:51.967Z,99920.69
2022-08-27T01:22:29.913Z,99917.00
2022-08-27T01:25:01.698Z,99911.25
2022-08-27T01:27:32.494Z,99919.16
2022-08-27T01:30:02.657Z,99915.06
2022-08-27T01:32:34.752Z,99918.19
2022-08-27T01:35:04.339Z,99913.84
2022-08-27T01:37:33.740Z,99907.88
2022-08-27T01:40:04.720Z,99913.47
2022-08-27T01:42:36.001Z,99912.72
2022-08-27T01:45:08.037Z,99913.00
2022-08-27T01:47:37.610Z,99912.59
2022-08-27T01:50:11.657Z,99918.19
2022-08-27T01:52:40.061Z,99907.88
2022-08-27T01:55:13.297Z,99915.56
2022-08-27T01:57:42.523Z,99919.94
2022-08-27T02:00:15.591Z,99915.59
2022-08-27T02:02:45.286Z,99907.97
2022-08-27T02:05:14.797Z,99915.25
2022-08-27T02:07:43.886Z,99910.34
2022-08-27T02:10:17.672Z,99908.91
2022-08-27T02:12:46.944Z,99912.63
2022-08-27T02:15:16.011Z,99905.19
2022-08-27T02:17:44.802Z,99907.50
2022-08-27T02:20:14.946Z,99906.88
2022-08-27T02:22:43.454Z,99902.16
2022-08-27T02:25:15.461Z,99902.81
2022-08-27T02:27:44.955Z,99904.06
2022-08-27T02:30:15.827Z,99912.31
2022-08-27T02:32:47.409Z,99917.69
2022-08-27T02:35:16.823Z,99914.19
2022-08-27T02:37:45.903Z,99914.63
2022-08-27T02:40:17.614Z,99926.00
2022-08-27T02:42:47.196Z,99923.53
2022-08-27T02:45:17.426Z,99926.41
2022-08-27T02:47:46.287Z,99926.84
2022-08-27T02:50:15.780Z,99921.47
2022-08-27T02:52:46.447Z,99926.22
2022-08-27T02:55:17.520Z,99934.28
2022-08-27T02:57:46.357Z,99922.94
2022-08-27T03:00:17.999Z,99925.25
2022-08-27T03:02:46.879Z,99921.94
2022-08-27T03:05:16.168Z,99929.81
2022-08-27T03:07:44.744Z,99925.25
2022-08-27T03:10:14.891Z,99920.28
2022-08-27T03:12:45.665Z,99924.84
2022-08-27T03:15:16.849Z,99920.72
2022-08-27T03:18:02.863Z,99922.00
2022-08-27T03:20:31.747Z,99920.53
2022-08-27T03:23:00.992Z,99915.41
2022-08-27T03:25:29.581Z,99920.16
2022-08-27T03:27:59.697Z,99920.34
2022-08-27T03:30:28.409Z,99917.28
2022-08-27T03:32:57.273Z,99912.94
2022-08-27T03:35:26.063Z,99906.16
2022-08-27T03:37:55.069Z,99916.66
2022-08-27T03:40:23.772Z,99915.63
2022-08-27T03:42:52.485Z,99920.81
2022-08-27T03:45:22.720Z,99910.88
2022-08-27T03:47:51.643Z,99914.19
2022-08-27T03:50:20.570Z,99921.81
2022-08-27T03:52:50.064Z,99911.69
2022-08-27T03:55:18.874Z,99916.19
2022-08-27T03:57:48.697Z,99915.34
2022-08-27T04:00:17.601Z,99921.09
2022-08-27T04:02:47.755Z,99909.91
2022-08-27T04:05:16.364Z,99912.19
2022-08-27T04:07:45.360Z,99904.50
2022-08-27T04:10:15.238Z,99915.22
2022-08-27T04:12:46.014Z,99915.41
2022-08-27T04:15:14.782Z,99912.25
2022-08-27T04:17:43.840Z,99912.19
2022-08-27T04:20:34.541Z,99913.19
2022-08-27T04:23:02.407Z,99907.53
2022-08-27T04:25:31.134Z,99906.69
2022-08-27T04:28:00.049Z,99907.88
2022-08-27T04:30:28.858Z,99907.00
2022-08-27T04:32:58.376Z,99909.03
2022-08-27T04:35:28.495Z,99913.97
2022-08-27T04:37:57.690Z,99902.34
2022-08-27T04:40:47.204Z,99910.50
2022-08-27T04:43:17.730Z,99915.50
2022-08-27T04:45:47.284Z,99907.56
2022-08-27T04:48:18.086Z,99917.13
2022-08-27T04:50:48.993Z,99908.91
2022-08-27T04:53:18.546Z,99908.63
2022-08-27T04:55:49.382Z,99910.06
2022-08-27T04:58:18.799Z,99906.63
2022-08-27T05:00:49.667Z,99898.84
2022-08-27T05:03:19.540Z,99909.66
2022-08-27T05:05:51.614Z,99903.72
2022-08-27T05:08:21.172Z,99905.84
2022-08-27T05:10:51.319Z,99908.34
2022-08-27T05:13:20.892Z,99903.22
2022-08-27T05:15:49.738Z,99902.41
2022-08-27T05:18:18.981Z,99903.59
2022-08-27T05:20:48.842Z,99899.63
2022-08-27T05:23:20.360Z,99897.97
2022-08-27T05:25:51.141Z,99903.25
2022-08-27T05:28:22.221Z,99899.00
2022-08-27T05:31:06.210Z,99905.91
2022-08-27T05:33:35.523Z,99898.50
2022-08-27T05:36:04.838Z,99893.69
2022-08-27T05:38:35.742Z,99902.50
2022-08-27T05:41:07.669Z,99905.16
2022-08-27T05:43:36.854Z,99900.09
2022-08-27T05:46:07.118Z,99906.00
2022-08-27T05:48:37.302Z,99901.28
2022-08-27T05:51:13.202Z,99899.25
2022-08-27T05:53:44.013Z,99896.50
2022-08-27T05:56:17.142Z,99899.34
2022-08-27T05:59:02.872Z,99901.25
2022-08-27T06:01:33.021Z,99900.72
2022-08-27T06:04:01.814Z,99899.06
2022-08-27T06:06:30.570Z,99898.91
2022-08-27T06:09:00.796Z,99898.66
2022-08-27T06:11:29.873Z,99899.19
2022-08-27T06:13:58.753Z,99890.25
2022-08-27T06:16:28.067Z,99897.25
2022-08-27T06:18:57.897Z,99895.59
2022-08-27T06:21:27.213Z,99902.78
2022-08-27T06:23:56.247Z,99901.75
2022-08-27T06:26:28.174Z,99905.88
2022-08-27T06:28:56.678Z,99897.81
2022-08-27T06:31:27.392Z,99898.66
2022-08-27T06:34:07.373Z,99904.41
2022-08-27T06:36:39.476Z,99904.72
2022-08-27T06:39:08.866Z,99900.16
2022-08-27T06:41:38.964Z,99897.69
2022-08-27T06:44:13.209Z,99898.50
2022-08-27T06:46:43.508Z,99899.22
2022-08-27T06:49:13.244Z,99905.13
2022-08-27T06:51:44.857Z,99906.25
2022-08-27T06:54:14.489Z,99908.88
2022-08-27T06:56:45.240Z,99909.31
2022-08-27T06:59:19.921Z,99910.75
2022-08-27T07:01:51.593Z,99905.44
2022-08-27T07:04:22.641Z,99909.66
2022-08-27T07:06:59.614Z,99910.81
2022-08-27T07:09:30.765Z,99902.22
2022-08-27T07:12:00.960Z,99898.44
2022-08-27T07:14:31.826Z,99895.06
2022-08-27T07:17:04.973Z,99894.78
2022-08-27T07:19:34.381Z,99888.31
2022-08-27T07:22:09.548Z,99880.47
2022-08-27T07:24:40.823Z,99880.53
2022-08-27T07:27:11.042Z,99875.03
2022-08-27T07:29:40.012Z,99880.94
2022-08-27T07:32:08.985Z,99885.09
2022-08-27T07:34:37.526Z,99878.88
2022-08-27T07:37:06.347Z,99875.09
2022-08-27T07:39:35.027Z,99878.41
2022-08-27T07:42:21.335Z,99879.59
2022-08-27T07:44:51.488Z,99882.75
2022-08-27T07:47:20.297Z,99882.09
2022-08-27T07:49:48.745Z,99884.06
2022-08-27T07:52:17.704Z,99879.63
2022-08-27T07:54:46.411Z,99876.03
2022-08-27T07:57:15.116Z,99875.25
2022-08-27T07:59:43.847Z,99870.28
2022-08-27T08:02:14.026Z,99875.63
2022-08-27T08:04:43.449Z,99875.56
2022-08-27T08:07:12.403Z,99871.31
2022-08-27T08:09:41.177Z,99878.66
2022-08-27T08:12:09.767Z,99872.81
2022-08-27T08:14:38.547Z,99875.59
2022-08-27T08:17:10.275Z,99884.00
2022-08-27T08:19:41.293Z,99880.41
2022-08-27T08:22:10.143Z,99874.22
2022-08-27T08:24:38.893Z,99878.53
2022-08-27T08:27:08.887Z,99886.47
2022-08-27T08:29:37.790Z,99884.25
2022-08-27T08:32:07.272Z,99881.06
2022-08-27T08:34:37.022Z,99889.97
2022-08-27T08:37:08.384Z,99890.78
2022-08-27T08:39:38.401Z,99887.91
2022-08-27T08:42:10.472Z,99893.56
2022-08-27T08:44:42.613Z,99899.06
2022-08-27T08:47:14.612Z,99897.94
2022-08-27T08:49:49.336Z,99895.94
2022-08-27T08:52:30.559Z,99889.53
2022-08-27T08:55:05.287Z,99893.03
2022-08-27T08:57:38.372Z,99887.09
2022-08-27T09:00:12.479Z,99887.72
2022-08-27T09:02:42.084Z,99882.59
2022-08-27T09:05:11.591Z,99880.84
2022-08-27T09:07:47.332Z,99886.41
2022-08-27T09:10:21.698Z,99885.97
2022-08-27T09:12:50.378Z,99870.38
2022-08-27T09:15:22.012Z,99873.59
2022-08-27T09:17:50.890Z,99872.81
2022-08-27T09:20:21.521Z,99863.19
2022-08-27T09:23:02.796Z,99861.41
2022-08-27T09:25:34.229Z,99868.19
2022-08-27T09:28:27.516Z,99869.81
2022-08-27T09:30:56.887Z,99872.75
2022-08-27T09:33:26.146Z,99863.34
2022-08-27T09:36:18.339Z,99861.13
2022-08-27T09:38:58.062Z,99868.44
2022-08-27T09:41:30.586Z,99868.97
2022-08-27T09:44:01.577Z,99864.72
2022-08-27T09:46:31.437Z,99865.94
2022-08-27T09:49:11.563Z,99850.44
2022-08-27T09:51:42.150Z,99862.34
2022-08-27T09:54:12.982Z,99857.66
2022-08-27T09:56:49.389Z,99853.59
2022-08-27T09:59:23.634Z,99855.53
2022-08-27T10:01:54.742Z,99850.28
2022-08-27T10:04:27.645Z,99858.69
2022-08-27T10:06:56.502Z,99853.69
2022-08-27T10:09:31.906Z,99852.19
2022-08-27T10:12:05.342Z,99846.19
2022-08-27T10:14:38.104Z,99842.34
2022-08-27T10:17:14.434Z,99841.28
2022-08-27T10:19:48.836Z,99836.53
2022-08-27T10:22:27.204Z,99840.31
2022-08-27T10:25:05.269Z,99836.91
2022-08-27T10:27:41.008Z,99837.91
2022-08-27T10:30:11.859Z,99841.28
2022-08-27T10:32:55.249Z,99836.63
2022-08-27T10:35:28.132Z,99843.53
2022-08-27T10:38:09.020Z,99832.25
2022-08-27T10:40:44.695Z,99830.47
2022-08-27T10:43:29.169Z,99820.13
2022-08-27T10:46:05.087Z,99814.47
2022-08-27T10:48:37.110Z,99817.63
2022-08-27T10:51:09.620Z,99815.50
2022-08-27T10:53:47.134Z,99812.38
2022-08-27T10:56:23.427Z,99813.63
2022-08-27T10:59:07.024Z,99820.38
2022-08-27T11:01:42.639Z,99811.91
2022-08-27T11:04:16.623Z,99802.69
2022-08-27T11:06:50.206Z,99813.44
2022-08-27T11:09:22.064Z,99812.28
2022-08-27T11:14:49.141Z,99803.84
2022-08-27T11:17:21.664Z,99808.66
2022-08-27T11:19:54.660Z,99808.81
2022-08-27T11:22:26.840Z,99800.44
2022-08-27T11:25:00.975Z,99804.94
2022-08-27T11:27:33.617Z,99806.19
2022-08-27T11:30:08.289Z,99802.88
2022-08-27T11:32:46.417Z,99796.69
2022-08-27T11:35:19.259Z,99800.53
2022-08-27T11:38:07.515Z,99796.19
2022-08-27T11:40:49.346Z,99808.41
2022-08-27T11:43:21.630Z,99810.22
2022-08-27T11:45:59.191Z,99818.22
2022-08-27T11:48:30.164Z,99803.63
2022-08-27T11:51:02.147Z,99816.78
2022-08-27T11:53:33.156Z,99812.44
2022-08-27T11:56:15.224Z,99812.34
2022-08-27T11:58:52.645Z,99802.03
2022-08-27T12:01:27.303Z,99799.13
2022-08-27T12:04:06.104Z,99807.19
2022-08-27T12:06:43.428Z,99807.84
2022-08-27T12:09:18.446Z,99799.44
2022-08-27T12:11:56.660Z,99784.59
2022-08-27T12:14:39.394Z,99802.16
2022-08-27T12:17:14.154Z,99802.47
2022-08-27T12:19:49.093Z,99809.72
2022-08-27T12:22:35.628Z,99790.56
2022-08-27T12:25:08.145Z,99792.78
2022-08-27T12:27:37.013Z,99786.56
2022-08-27T12:30:22.594Z,99774.34
2022-08-27T12:32:52.804Z,99795.91
2022-08-27T12:35:24.407Z,99784.81
2022-08-27T12:37:57.012Z,99787.28
2022-08-27T12:40:28.162Z,99792.47
2022-08-27T12:43:07.448Z,99778.97
2022-08-27T12:45:43.167Z,99780.41
2022-08-27T12:48:12.129Z,99786.16
2022-08-27T12:50:41.276Z,99779.50
2022-08-27T12:53:28.026Z,99783.47
2022-08-27T12:56:05.019Z,99782.66
2022-08-27T12:58:43.198Z,99782.69
2022-08-27T13:01:29.438Z,99782.66
2022-08-27T13:04:01.220Z,99791.56
2022-08-27T13:06:33.430Z,99786.28
2022-08-27T13:09:04.840Z,99769.41
2022-08-27T13:11:36.078Z,99772.94
2022-08-27T13:14:09.718Z,99771.25
2022-08-27T13:16:43.457Z,99773.91
2022-08-27T13:19:17.157Z,99769.84
2022-08-27T13:21:49.679Z,99780.00
2022-08-27T13:24:22.159Z,99782.00
2022-08-27T13:26:54.965Z,99775.16
2022-08-27T13:29:24.022Z,99777.25
2022-08-27T13:31:54.648Z,99775.81
2022-08-27T13:34:24.679Z,99778.41
2022-08-27T13:36:59.766Z,99774.75
2022-08-27T13:39:29.314Z,99778.31
2022-08-27T13:42:00.195Z,99778.16
2022-08-27T13:44:32.853Z,99771.81
2022-08-27T13:47:05.095Z,99764.66
2022-08-27T13:49:39.649Z,99769.59
2022-08-27T13:52:25.659Z,99770.41
2022-08-27T13:54:59.060Z,99770.56
2022-08-27T13:57:31.446Z,99765.75
2022-08-27T14:00:10.971Z,99759.94
2022-08-27T14:02:42.584Z,99764.00
2022-08-27T14:05:35.679Z,99756.84
2022-08-27T14:08:14.848Z,99761.59
2022-08-27T14:10:47.312Z,99747.72
2022-08-27T14:13:23.340Z,99759.72
2022-08-27T14:15:54.369Z,99758.22
2022-08-27T14:18:48.161Z,99752.94
2022-08-27T14:21:16.116Z,99754.25
2022-08-27T14:23:45.491Z,99748.81
2022-08-27T14:26:15.099Z,99755.53
2022-08-27T14:28:43.964Z,99747.16
2022-08-27T14:31:13.528Z,99748.53
2022-08-27T14:33:43.901Z,99744.78
2022-08-27T14:36:12.804Z,99738.13
2022-08-27T14:38:44.488Z,99758.53
2022-08-27T14:41:14.565Z,99741.47
2022-08-27T14:43:43.517Z,99749.84
2022-08-27T14:46:21.922Z,99745.91
2022-08-27T14:48:52.364Z,99750.31
2022-08-27T14:51:24.994Z,99749.28
2022-08-27T14:53:54.590Z,99745.78
2022-08-27T14:56:24.339Z,99744.75
2022-08-27T14:58:54.414Z,99741.59
2022-08-27T15:01:24.901Z,99737.31
2022-08-27T15:03:55.846Z,99736.84
2022-08-27T15:06:27.295Z,99734.69
2022-08-27T15:08:56.468Z,99735.84
2022-08-27T15:11:27.154Z,99737.66
2022-08-27T15:13:56.389Z,99735.06
2022-08-27T15:16:29.395Z,99744.31
2022-08-27T15:19:01.247Z,99735.28
2022-08-27T15:21:31.011Z,99732.97
2022-08-27T15:24:02.347Z,99732.50
2022-08-27T15:26:31.546Z,99743.63
2022-08-27T15:29:05.563Z,99752.59
2022-08-27T15:31:34.588Z,99739.56
2022-08-27T15:34:05.105Z,99744.72
2022-08-27T15:36:34.198Z,99729.03
2022-08-27T15:39:03.708Z,99734.06
2022-08-27T15:41:34.293Z,99726.81
2022-08-27T15:44:07.822Z,99728.97
2022-08-27T15:46:36.541Z,99729.00
2022-08-27T15:49:10.956Z,99732.13
2022-08-27T15:51:39.758Z,99737.03
2022-08-27T15:54:08.510Z,99729.19
2022-08-27T15:56:37.215Z,99723.66
2022-08-27T15:59:05.991Z,99725.78
2022-08-27T16:01:36.986Z,99718.88
2022-08-27T16:04:06.779Z,99724.88
2022-08-27T16:06:37.299Z,99725.25
2022-08-27T16:09:06.399Z,99720.13
2022-08-27T16:11:35.152Z,99729.38
2022-08-27T16:14:04.113Z,99724.59
2022-08-27T16:16:33.436Z,99723.63
2022-08-27T16:19:03.068Z,99726.34
2022-08-27T16:21:34.898Z,99731.41
2022-08-27T16:24:07.071Z,99730.47
2022-08-27T16:26:35.850Z,99726.94
2022-08-27T16:29:05.776Z,99730.03
2022-08-27T16:31:35.221Z,99733.94
2022-08-27T16:34:04.836Z,99724.72
2022-08-27T16:36:33.624Z,99725.78
2022-08-27T16:39:02.510Z,99723.97
2022-08-27T16:41:32.852Z,99734.16
2022-08-27T16:44:01.750Z,99730.34
2022-08-27T16:46:30.514Z,99726.72
2022-08-27T16:49:16.950Z,99726.97
2022-08-27T16:51:46.269Z,99733.59
2022-08-27T16:54:16.965Z,99732.16
2022-08-27T16:56:47.241Z,99735.81
2022-08-27T16:59:16.088Z,99729.25
2022-08-27T17:01:45.060Z,99733.06
2022-08-27T17:04:23.689Z,99739.09
2022-08-27T17:06:57.743Z,99738.25
2022-08-27T17:09:27.439Z,99745.78
2022-08-27T17:11:59.223Z,99748.44
2022-08-27T17:14:28.169Z,99748.59
2022-08-27T17:16:56.756Z,99755.03
2022-08-27T17:19:26.362Z,99750.06
2022-08-27T17:21:55.474Z,99752.91
2022-08-27T17:24:24.483Z,99757.38
2022-08-27T17:26:53.242Z,99761.28
2022-08-27T17:29:23.361Z,99763.00
2022-08-27T17:31:51.899Z,99765.25
2022-08-27T17:34:23.326Z,99761.72
2022-08-27T17:36:52.311Z,99775.41
2022-08-27T17:39:21.585Z,99779.78
2022-08-27T17:41:52.197Z,99769.19
2022-08-27T17:44:25.690Z,99778.72
2022-08-27T17:46:55.984Z,99774.88
2022-08-27T17:49:25.564Z,99783.59
2022-08-27T17:51:58.276Z,99784.66
2022-08-27T17:54:31.215Z,99782.22
2022-08-27T17:57:00.056Z,99785.22
2022-08-27T17:59:30.372Z,99791.69
2022-08-27T18:01:59.162Z,99794.94
2022-08-27T18:04:27.569Z,99790.00
2022-08-27T18:06:56.222Z,99792.97
2022-08-27T18:09:24.925Z,99798.13
2022-08-27T18:11:54.223Z,99795.66
2022-08-27T18:14:25.703Z,99801.63
2022-08-27T18:16:55.621Z,99800.81
2022-08-27T18:19:24.339Z,99810.28
2022-08-27T18:21:53.393Z,99807.25
2022-08-27T18:24:22.283Z,99809.94
2022-08-27T18:26:51.269Z,99816.16
2022-08-27T18:29:20.281Z,99811.25
2022-08-27T18:31:49.255Z,99813.63
2022-08-27T18:34:21.099Z,99817.66
2022-08-27T18:36:50.090Z,99820.31
2022-08-27T18:39:20.432Z,99829.75
2022-08-27T18:41:54.486Z,99829.47
2022-08-27T18:44:24.301Z,99828.09
2022-08-27T18:46:53.789Z,99830.50
2022-08-27T18:49:25.978Z,99832.94
2022-08-27T18:51:55.158Z,99834.53
2022-08-27T18:54:25.108Z,99837.72
2022-08-27T18:56:54.728Z,99837.09
2022-08-27T18:59:25.721Z,99843.03
2022-08-27T19:01:54.443Z,99848.06
2022-08-27T19:04:25.087Z,99850.41
2022-08-27T19:06:53.934Z,99844.88
2022-08-27T19:09:22.760Z,99853.47
2022-08-27T19:11:52.070Z,99855.31
2022-08-27T19:14:20.770Z,99855.53
2022-08-27T19:16:53.924Z,99858.19
2022-08-27T19:19:27.838Z,99861.63
2022-08-27T19:21:56.900Z,99861.84
2022-08-27T19:24:29.502Z,99860.41
2022-08-27T19:26:58.327Z,99860.06
2022-08-27T19:29:27.018Z,99856.22
2022-08-27T19:31:55.496Z,99858.41
2022-08-27T19:34:25.726Z,99859.97
2022-08-27T19:36:54.481Z,99857.97
2022-08-27T19:39:23.259Z,99853.88
2022-08-27T19:41:52.026Z,99855.75
2022-08-27T19:44:20.890Z,99854.63
2022-08-27T19:46:51.115Z,99853.75
2022-08-27T19:49:20.028Z,99865.56
2022-08-27T19:51:50.351Z,99862.22
2022-08-27T19:54:19.333Z,99872.16
2022-08-27T19:56:48.244Z,99869.63
2022-08-27T19:59:21.532Z,99873.00
2022-08-27T20:01:50.496Z,99867.53
2022-08-27T20:04:19.436Z,99875.22
2022-08-27T20:06:49.912Z,99869.72
2022-08-27T20:09:21.359Z,99873.41
2022-08-27T20:11:50.730Z,99868.97
2022-08-27T20:14:19.856Z,99874.03
2022-08-27T20:16:48.745Z,99878.06
2022-08-27T20:19:18.103Z,99880.19
2022-08-27T20:21:46.789Z,99875.03
2022-08-27T20:24:17.368Z,99874.13
2022-08-27T20:26:46.765Z,99875.09
2022-08-27T20:29:32.193Z,99877.72
2022-08-27T20:32:01.445Z,99870.34
2022-08-27T20:34:32.625Z,99872.94
2022-08-27T20:37:02.766Z,99875.34
2022-08-27T20:39:33.173Z,99874.50
2022-08-27T20:42:01.919Z,99878.50
2022-08-27T20:44:31.632Z,99875.72
2022-08-27T20:47:01.918Z,99883.97
2022-08-27T20:49:30.711Z,99878.47
2022-08-27T20:52:03.065Z,99881.09
2022-08-27T20:54:35.000Z,99873.47
2022-08-27T20:57:04.228Z,99879.31
2022-08-27T20:59:51.459Z,99876.75
2022-08-27T21:02:23.923Z,99880.06
2022-08-27T21:04:52.634Z,99875.84
2022-08-27T21:07:22.827Z,99879.13
2022-08-27T21:09:55.886Z,99877.50
2022-08-27T21:12:26.772Z,99877.50
2022-08-27T21:14:56.751Z,99870.59
2022-08-27T21:17:29.044Z,99871.88
2022-08-27T21:19:57.672Z,99857.22
2022-08-27T21:22:26.559Z,99866.38
2022-08-27T21:24:56.678Z,99866.78
2022-08-27T21:27:25.436Z,99864.75
2022-08-27T21:29:54.172Z,99866.75
2022-08-27T21:32:22.865Z,99861.88
2022-08-27T21:34:51.374Z,99865.84
2022-08-27T21:37:20.495Z,99864.44
2022-08-27T21:39:49.373Z,99867.97
2022-08-27T21:42:19.429Z,99859.75
2022-08-27T21:44:48.174Z,99864.56
2022-08-27T21:47:16.822Z,99871.00
2022-08-27T21:49:45.425Z,99867.59
2022-08-27T21:52:14.316Z,99868.53
2022-08-27T21:54:43.750Z,99869.00
2022-08-27T21:57:15.012Z,99869.47
2022-08-27T21:59:47.276Z,99873.91
2022-08-27T22:05:05.899Z,99864.88
2022-08-27T22:07:34.590Z,99860.22
2022-08-27T22:10:04.300Z,99860.91
2022-08-27T22:12:33.062Z,99860.22
2022-08-27T22:15:03.204Z,99854.69
2022-08-27T22:17:31.902Z,99855.38
2022-08-27T22:20:00.660Z,99846.34
2022-08-27T22:22:30.636Z,99850.31
2022-08-27T22:24:59.810Z,99851.47
2022-08-27T22:27:28.832Z,99845.16
2022-08-27T22:29:57.569Z,99849.94
2022-08-27T22:32:27.690Z,99852.25
2022-08-27T22:34:56.014Z,99852.25
2022-08-27T22:37:24.743Z,99850.03
2022-08-27T22:39:54.105Z,99850.88
2022-08-27T22:42:23.614Z,99847.13
2022-08-27T22:44:54.917Z,99847.56
2022-08-27T22:47:23.816Z,99839.34
2022-08-27T22:49:54.203Z,99841.69
2022-08-27T22:52:28.263Z,99838.84
2022-08-27T22:54:57.521Z,99849.47
2022-08-27T22:57:26.245Z,99840.22
2022-08-27T22:59:55.059Z,99841.13
2022-08-27T23:02:23.744Z,99840.38
2022-08-27T23:04:55.774Z,99835.94
2022-08-27T23:07:25.069Z,99838.50
2022-08-27T23:09:53.856Z,99833.63
2022-08-27T23:12:23.871Z,99840.16
2022-08-27T23:14:52.703Z,99838.16
2022-08-27T23:17:21.533Z,99836.34
2022-08-27T23:19:50.409Z,99832.03
2022-08-27T23:22:20.488Z,99837.03
2022-08-27T23:25:06.962Z,99834.19
2022-08-27T23:27:35.918Z,99831.31
2022-08-27T23:30:06.479Z,99829.69
2022-08-27T23:32:35.539Z,99825.56
2022-08-27T23:35:04.608Z,99832.22
2022-08-27T23:37:34.519Z,99828.94
2022-08-27T23:40:03.314Z,99835.00
2022-08-27T23:42:32.040Z,99829.66
2022-08-27T23:45:00.834Z,99829.66
2022-08-27T23:47:29.472Z,99829.06
2022-08-27T23:49:58.224Z,99824.53
2022-08-27T23:52:26.686Z,99828.47
2022-08-27T23:54:56.784Z,99829.50
2022-08-27T23:57:25.536Z,99830.25
2022-08-27T23:59:54.236Z,99823.47
